N626PC RPVD-RPMD
Flight info
| Callsign | N626PC |
|---|---|
| Flight time | 1h 16m |
| Altitude | 9500 |
| Route | VFR |
| Aircraft | AEST/L-SDF/C |
Departure
| Time | 2026-05-04 22:10 |
|---|---|
| Airport | Sibulan Airport (RPVD) |
Arrival
| Time | 2026-05-04 23:26 |
|---|---|
| Airport | Francisco Bangoy International Airport (RPMD) |
| Time | Latitude | Longitude | Altitude | Speed | Heading |
|---|---|---|---|---|---|
| 2026-05-04 21:36 | 9.33401 | 123.29366 | 47 ft | 0 kts | 96° |
| 2026-05-04 22:02 | 9.33402 | 123.29368 | 47 ft | 0 kts | 75° |
| 2026-05-04 22:03 | 9.33407 | 123.29372 | 47 ft | 1 kts | 15° |
| 2026-05-04 22:03 | 9.33421 | 123.29375 | 48 ft | 0 kts | 9° |
| 2026-05-04 22:03 | 9.33439 | 123.29378 | 48 ft | 6 kts | 14° |
| 2026-05-04 22:03 | 9.33461 | 123.29447 | 48 ft | 16 kts | 91° |
| 2026-05-04 22:04 | 9.33456 | 123.29556 | 47 ft | 16 kts | 93° |
| 2026-05-04 22:04 | 9.33448 | 123.29693 | 45 ft | 23 kts | 94° |
| 2026-05-04 22:04 | 9.33439 | 123.29837 | 44 ft | 23 kts | 93° |
| 2026-05-04 22:04 | 9.33430 | 123.29991 | 41 ft | 22 kts | 92° |
| 2026-05-04 22:05 | 9.33421 | 123.30169 | 34 ft | 28 kts | 93° |
| 2026-05-04 22:05 | 9.33411 | 123.30353 | 33 ft | 27 kts | 93° |
| 2026-05-04 22:05 | 9.33400 | 123.30554 | 31 ft | 30 kts | 93° |
| 2026-05-04 22:05 | 9.33391 | 123.30745 | 30 ft | 17 kts | 92° |
| 2026-05-04 22:06 | 9.33384 | 123.30874 | 30 ft | 19 kts | 94° |
| 2026-05-04 22:06 | 9.33382 | 123.30979 | 29 ft | 8 kts | 77° |
| 2026-05-04 22:06 | 9.33374 | 123.30991 | 29 ft | 0 kts | 272° |
| 2026-05-04 22:09 | 9.33374 | 123.30989 | 29 ft | 2 kts | 272° |
| 2026-05-04 22:09 | 9.33390 | 123.30677 | 30 ft | 79 kts | 274° |
| 2026-05-04 22:10 | 9.33430 | 123.30024 | 98 ft | 102 kts | 273° |
| 2026-05-04 22:10 | 9.33464 | 123.29246 | 273 ft | 122 kts | 273° |
| 2026-05-04 22:10 | 9.33674 | 123.28370 | 530 ft | 133 kts | 303° |
| 2026-05-04 22:10 | 9.34416 | 123.27794 | 816 ft | 142 kts | 342° |
| 2026-05-04 22:11 | 9.35430 | 123.27780 | 1004 ft | 153 kts | 15° |
| 2026-05-04 22:11 | 9.36335 | 123.28329 | 1251 ft | 153 kts | 46° |
| 2026-05-04 22:11 | 9.36886 | 123.29266 | 1480 ft | 156 kts | 66° |
| 2026-05-04 22:11 | 9.37248 | 123.30297 | 1734 ft | 155 kts | 70° |
| 2026-05-04 22:12 | 9.37567 | 123.31352 | 1926 ft | 159 kts | 71° |
| 2026-05-04 22:12 | 9.37923 | 123.32425 | 2111 ft | 163 kts | 68° |
| 2026-05-04 22:12 | 9.38361 | 123.33514 | 2224 ft | 171 kts | 66° |
| 2026-05-04 22:12 | 9.38737 | 123.34672 | 2294 ft | 177 kts | 73° |
| 2026-05-04 22:13 | 9.39020 | 123.35911 | 2376 ft | 182 kts | 76° |
| 2026-05-04 22:13 | 9.39309 | 123.37148 | 2530 ft | 180 kts | 75° |
| 2026-05-04 22:13 | 9.39603 | 123.38377 | 2657 ft | 180 kts | 76° |
| 2026-05-04 22:13 | 9.39774 | 123.39643 | 2675 ft | 185 kts | 86° |
| 2026-05-04 22:14 | 9.39729 | 123.40969 | 2689 ft | 190 kts | 94° |
| 2026-05-04 22:14 | 9.39494 | 123.42293 | 2700 ft | 194 kts | 103° |
| 2026-05-04 22:14 | 9.39037 | 123.43586 | 2717 ft | 197 kts | 112° |
| 2026-05-04 22:14 | 9.38372 | 123.44813 | 2698 ft | 200 kts | 118° |
| 2026-05-04 22:15 | 9.37628 | 123.46005 | 2776 ft | 199 kts | 120° |
| 2026-05-04 22:15 | 9.36850 | 123.47156 | 2804 ft | 198 kts | 123° |
| 2026-05-04 22:15 | 9.36045 | 123.48273 | 2785 ft | 199 kts | 124° |
| 2026-05-04 22:15 | 9.35182 | 123.49397 | 2801 ft | 200 kts | 126° |
| 2026-05-04 22:16 | 9.34288 | 123.50450 | 2821 ft | 200 kts | 129° |
| 2026-05-04 22:16 | 9.33345 | 123.51492 | 2807 ft | 202 kts | 130° |
| 2026-05-04 22:16 | 9.32400 | 123.52542 | 2814 ft | 202 kts | 129° |
| 2026-05-04 22:16 | 9.31437 | 123.53574 | 2808 ft | 202 kts | 131° |
| 2026-05-04 22:17 | 9.30435 | 123.54569 | 2786 ft | 202 kts | 133° |
| 2026-05-04 22:17 | 9.29413 | 123.55543 | 2789 ft | 201 kts | 134° |
| 2026-05-04 22:17 | 9.28371 | 123.56484 | 2809 ft | 200 kts | 136° |
| 2026-05-04 22:17 | 9.27320 | 123.57407 | 2823 ft | 200 kts | 135° |
| 2026-05-04 22:18 | 9.26291 | 123.58353 | 2856 ft | 198 kts | 132° |
| 2026-05-04 22:18 | 9.25380 | 123.59394 | 2886 ft | 198 kts | 124° |
| 2026-05-04 22:18 | 9.24611 | 123.60550 | 2879 ft | 198 kts | 121° |
| 2026-05-04 22:18 | 9.23874 | 123.61736 | 2865 ft | 198 kts | 119° |
| 2026-05-04 22:19 | 9.23149 | 123.62911 | 2896 ft | 197 kts | 118° |
| 2026-05-04 22:19 | 9.22425 | 123.64084 | 2898 ft | 195 kts | 120° |
| 2026-05-04 22:19 | 9.21653 | 123.65217 | 2877 ft | 196 kts | 125° |
| 2026-05-04 22:19 | 9.20771 | 123.66271 | 2860 ft | 196 kts | 129° |
| 2026-05-04 22:20 | 9.19995 | 123.67402 | 2862 ft | 197 kts | 107° |
| 2026-05-04 22:20 | 9.19925 | 123.68756 | 2843 ft | 194 kts | 74° |
| 2026-05-04 22:20 | 9.20580 | 123.69911 | 2831 ft | 190 kts | 44° |
| 2026-05-04 22:20 | 9.21710 | 123.70556 | 2859 ft | 189 kts | 16° |
| 2026-05-04 22:21 | 9.23022 | 123.70572 | 2849 ft | 191 kts | 349° |
| 2026-05-04 22:21 | 9.24193 | 123.69962 | 2874 ft | 193 kts | 321° |
| 2026-05-04 22:21 | 9.24924 | 123.68812 | 2846 ft | 200 kts | 290° |
| 2026-05-04 22:21 | 9.25031 | 123.67424 | 2820 ft | 203 kts | 262° |
| 2026-05-04 22:22 | 9.24482 | 123.66129 | 2903 ft | 200 kts | 231° |
| 2026-05-04 22:22 | 9.23400 | 123.65315 | 3009 ft | 197 kts | 200° |
| 2026-05-04 22:22 | 9.22036 | 123.65148 | 2978 ft | 199 kts | 169° |
| 2026-05-04 22:22 | 9.20785 | 123.65675 | 3014 ft | 193 kts | 139° |
| 2026-05-04 22:23 | 9.19931 | 123.66685 | 3073 ft | 188 kts | 121° |
| 2026-05-04 22:23 | 9.19126 | 123.67714 | 3094 ft | 188 kts | 137° |
| 2026-05-04 22:23 | 9.17918 | 123.68249 | 3038 ft | 196 kts | 171° |
| 2026-05-04 22:23 | 9.16586 | 123.67971 | 3008 ft | 201 kts | 207° |
| 2026-05-04 22:24 | 9.15597 | 123.66977 | 3009 ft | 205 kts | 239° |
| 2026-05-04 22:24 | 9.15220 | 123.65597 | 3016 ft | 206 kts | 270° |
| 2026-05-04 22:24 | 9.15543 | 123.64205 | 3025 ft | 205 kts | 300° |
| 2026-05-04 22:24 | 9.16458 | 123.63133 | 3026 ft | 201 kts | 328° |
| 2026-05-04 22:25 | 9.17740 | 123.62626 | 3003 ft | 198 kts | 357° |
| 2026-05-04 22:25 | 9.19088 | 123.62804 | 3009 ft | 195 kts | 25° |
| 2026-05-04 22:25 | 9.20160 | 123.63591 | 3036 ft | 191 kts | 52° |
| 2026-05-04 22:25 | 9.20724 | 123.64780 | 3050 ft | 189 kts | 78° |
| 2026-05-04 22:26 | 9.20660 | 123.66094 | 3049 ft | 189 kts | 106° |
| 2026-05-04 22:26 | 9.20062 | 123.67282 | 3080 ft | 190 kts | 118° |
| 2026-05-04 22:26 | 9.19361 | 123.68415 | 3079 ft | 191 kts | 120° |
| 2026-05-04 22:26 | 9.18601 | 123.69525 | 3071 ft | 192 kts | 123° |
| 2026-05-04 22:27 | 9.17778 | 123.70602 | 3057 ft | 194 kts | 127° |
| 2026-05-04 22:27 | 9.16768 | 123.71493 | 3150 ft | 193 kts | 145° |
| 2026-05-04 22:27 | 9.15525 | 123.71992 | 3275 ft | 194 kts | 165° |
| 2026-05-04 22:27 | 9.14174 | 123.72052 | 3395 ft | 196 kts | 184° |
| 2026-05-04 22:28 | 9.12842 | 123.71728 | 3525 ft | 199 kts | 192° |
| 2026-05-04 22:28 | 9.11487 | 123.71425 | 3648 ft | 200 kts | 184° |
| 2026-05-04 22:28 | 9.10130 | 123.71325 | 3806 ft | 196 kts | 176° |
| 2026-05-04 22:28 | 9.08793 | 123.71356 | 4027 ft | 189 kts | 174° |
| 2026-05-04 22:29 | 9.07489 | 123.71375 | 4232 ft | 186 kts | 175° |
| 2026-05-04 22:29 | 9.06194 | 123.71386 | 4419 ft | 185 kts | 175° |
| 2026-05-04 22:29 | 9.04914 | 123.71396 | 4595 ft | 183 kts | 175° |
| 2026-05-04 22:29 | 9.03639 | 123.71403 | 4764 ft | 183 kts | 175° |
| 2026-05-04 22:30 | 9.02794 | 123.71406 | 4869 ft | 183 kts | 175° |
| 2026-05-04 22:30 | 9.01100 | 123.71412 | 5077 ft | 181 kts | 175° |
| 2026-05-04 22:30 | 8.99844 | 123.71423 | 5233 ft | 180 kts | 175° |
| 2026-05-04 22:30 | 8.99013 | 123.71429 | 5339 ft | 181 kts | 175° |
| 2026-05-04 22:31 | 8.97755 | 123.71434 | 5484 ft | 181 kts | 175° |
| 2026-05-04 22:31 | 8.96506 | 123.71480 | 5638 ft | 178 kts | 169° |
| 2026-05-04 22:31 | 8.95286 | 123.71621 | 5777 ft | 176 kts | 168° |
| 2026-05-04 22:31 | 8.94074 | 123.71771 | 5918 ft | 175 kts | 168° |
| 2026-05-04 22:32 | 8.92865 | 123.71935 | 6057 ft | 175 kts | 168° |
| 2026-05-04 22:32 | 8.91657 | 123.72103 | 6190 ft | 175 kts | 168° |
| 2026-05-04 22:32 | 8.90448 | 123.72264 | 6314 ft | 175 kts | 168° |
| 2026-05-04 22:32 | 8.89243 | 123.72433 | 6427 ft | 175 kts | 168° |
| 2026-05-04 22:33 | 8.88044 | 123.72607 | 6547 ft | 174 kts | 167° |
| 2026-05-04 22:33 | 8.86849 | 123.72820 | 6672 ft | 174 kts | 165° |
| 2026-05-04 22:33 | 8.85662 | 123.73032 | 6788 ft | 173 kts | 165° |
| 2026-05-04 22:33 | 8.84480 | 123.73248 | 6905 ft | 172 kts | 165° |
| 2026-05-04 22:34 | 8.83300 | 123.73459 | 7024 ft | 172 kts | 165° |
| 2026-05-04 22:34 | 8.82120 | 123.73669 | 7131 ft | 172 kts | 165° |
| 2026-05-04 22:34 | 8.80939 | 123.73870 | 7233 ft | 171 kts | 165° |
| 2026-05-04 22:34 | 8.79767 | 123.74064 | 7345 ft | 170 kts | 165° |
| 2026-05-04 22:35 | 8.78598 | 123.74260 | 7454 ft | 171 kts | 165° |
| 2026-05-04 22:35 | 8.77426 | 123.74455 | 7557 ft | 171 kts | 165° |
| 2026-05-04 22:35 | 8.76258 | 123.74655 | 7668 ft | 170 kts | 165° |
| 2026-05-04 22:35 | 8.75097 | 123.74862 | 7765 ft | 170 kts | 165° |
| 2026-05-04 22:36 | 8.73940 | 123.75084 | 7866 ft | 169 kts | 165° |
| 2026-05-04 22:36 | 8.72794 | 123.75322 | 7964 ft | 168 kts | 165° |
| 2026-05-04 22:36 | 8.71649 | 123.75549 | 8056 ft | 167 kts | 165° |
| 2026-05-04 22:36 | 8.70514 | 123.75792 | 8150 ft | 167 kts | 165° |
| 2026-05-04 22:37 | 8.69390 | 123.76030 | 8245 ft | 166 kts | 165° |
| 2026-05-04 22:37 | 8.68259 | 123.76266 | 8334 ft | 166 kts | 165° |
| 2026-05-04 22:37 | 8.67131 | 123.76488 | 8421 ft | 165 kts | 165° |
| 2026-05-04 22:37 | 8.66009 | 123.76718 | 8497 ft | 164 kts | 165° |
| 2026-05-04 22:38 | 8.64890 | 123.76952 | 8576 ft | 164 kts | 165° |
| 2026-05-04 22:38 | 8.63773 | 123.77187 | 8654 ft | 164 kts | 165° |
| 2026-05-04 22:38 | 8.62662 | 123.77441 | 8731 ft | 163 kts | 165° |
| 2026-05-04 22:38 | 8.61556 | 123.77697 | 8812 ft | 163 kts | 165° |
| 2026-05-04 22:39 | 8.60447 | 123.77957 | 8904 ft | 164 kts | 165° |
| 2026-05-04 22:39 | 8.59332 | 123.78216 | 9005 ft | 165 kts | 165° |
| 2026-05-04 22:39 | 8.58214 | 123.78475 | 9111 ft | 165 kts | 165° |
| 2026-05-04 22:39 | 8.57095 | 123.78734 | 9220 ft | 165 kts | 165° |
| 2026-05-04 22:40 | 8.55975 | 123.78991 | 9333 ft | 165 kts | 165° |
| 2026-05-04 22:40 | 8.54852 | 123.79256 | 9443 ft | 165 kts | 165° |
| 2026-05-04 22:40 | 8.53733 | 123.79515 | 9537 ft | 165 kts | 165° |
| 2026-05-04 22:40 | 8.52597 | 123.79778 | 9560 ft | 171 kts | 165° |
| 2026-05-04 22:41 | 8.51410 | 123.80019 | 9538 ft | 177 kts | 169° |
| 2026-05-04 22:41 | 8.50206 | 123.80357 | 9526 ft | 182 kts | 162° |
| 2026-05-04 22:41 | 8.48959 | 123.80653 | 9530 ft | 186 kts | 168° |
| 2026-05-04 22:41 | 8.47677 | 123.80930 | 9537 ft | 191 kts | 162° |
| 2026-05-04 22:42 | 8.46398 | 123.81343 | 9532 ft | 195 kts | 161° |
| 2026-05-04 22:42 | 8.45094 | 123.81776 | 9531 ft | 199 kts | 160° |
| 2026-05-04 22:42 | 8.43772 | 123.82219 | 9538 ft | 202 kts | 160° |
| 2026-05-04 22:42 | 8.42444 | 123.82662 | 9534 ft | 204 kts | 161° |
| 2026-05-04 22:43 | 8.41081 | 123.83090 | 9535 ft | 206 kts | 166° |
| 2026-05-04 22:43 | 8.39655 | 123.83288 | 9536 ft | 208 kts | 172° |
| 2026-05-04 22:43 | 8.38213 | 123.83464 | 9540 ft | 209 kts | 172° |
| 2026-05-04 22:43 | 8.36762 | 123.83641 | 9539 ft | 211 kts | 172° |
| 2026-05-04 22:44 | 8.35299 | 123.83818 | 9535 ft | 212 kts | 172° |
| 2026-05-04 22:44 | 8.33833 | 123.83997 | 9531 ft | 212 kts | 172° |
| 2026-05-04 22:44 | 8.32368 | 123.84177 | 9535 ft | 212 kts | 172° |
| 2026-05-04 22:44 | 8.30906 | 123.84356 | 9537 ft | 212 kts | 172° |
| 2026-05-04 22:45 | 8.29445 | 123.84535 | 9538 ft | 210 kts | 172° |
| 2026-05-04 22:45 | 8.26543 | 123.84942 | 9539 ft | 212 kts | 163° |
| 2026-05-04 22:45 | 8.25137 | 123.85383 | 9537 ft | 211 kts | 161° |
| 2026-05-04 22:46 | 8.23733 | 123.85833 | 9544 ft | 211 kts | 161° |
| 2026-05-04 22:46 | 8.22330 | 123.86282 | 9544 ft | 212 kts | 161° |
| 2026-05-04 22:46 | 8.20925 | 123.86732 | 9543 ft | 212 kts | 161° |
| 2026-05-04 22:46 | 8.19517 | 123.87185 | 9543 ft | 212 kts | 162° |
| 2026-05-04 22:47 | 8.18105 | 123.87630 | 9543 ft | 212 kts | 162° |
| 2026-05-04 22:47 | 8.16695 | 123.88078 | 9542 ft | 212 kts | 161° |
| 2026-05-04 22:47 | 8.15287 | 123.88525 | 9543 ft | 212 kts | 161° |
| 2026-05-04 22:47 | 8.13880 | 123.88975 | 9543 ft | 212 kts | 161° |
| 2026-05-04 22:48 | 8.12473 | 123.89423 | 9543 ft | 212 kts | 161° |
| 2026-05-04 22:48 | 8.11067 | 123.89874 | 9543 ft | 212 kts | 161° |
| 2026-05-04 22:48 | 8.09658 | 123.90322 | 9545 ft | 212 kts | 161° |
| 2026-05-04 22:48 | 8.08245 | 123.90770 | 9543 ft | 213 kts | 161° |
| 2026-05-04 22:49 | 8.06834 | 123.91220 | 9543 ft | 213 kts | 161° |
| 2026-05-04 22:49 | 8.05439 | 123.91666 | 9545 ft | 213 kts | 162° |
| 2026-05-04 22:49 | 8.04027 | 123.92113 | 9546 ft | 213 kts | 161° |
| 2026-05-04 22:49 | 8.02617 | 123.92562 | 9546 ft | 213 kts | 161° |
| 2026-05-04 22:50 | 8.01206 | 123.93012 | 9545 ft | 213 kts | 161° |
| 2026-05-04 22:50 | 7.99793 | 123.93461 | 9546 ft | 212 kts | 161° |
| 2026-05-04 22:50 | 7.98387 | 123.93907 | 9546 ft | 212 kts | 161° |
| 2026-05-04 22:50 | 7.96977 | 123.94354 | 9542 ft | 212 kts | 161° |
| 2026-05-04 22:51 | 7.95568 | 123.94804 | 9540 ft | 212 kts | 161° |
| 2026-05-04 22:51 | 7.94161 | 123.95253 | 9542 ft | 212 kts | 161° |
| 2026-05-04 22:51 | 7.92755 | 123.95697 | 9546 ft | 212 kts | 161° |
| 2026-05-04 22:51 | 7.91347 | 123.96146 | 9544 ft | 212 kts | 161° |
| 2026-05-04 22:52 | 7.89940 | 123.96596 | 9544 ft | 213 kts | 161° |
| 2026-05-04 22:52 | 7.88529 | 123.97048 | 9545 ft | 213 kts | 161° |
| 2026-05-04 22:52 | 7.87115 | 123.97492 | 9545 ft | 213 kts | 161° |
| 2026-05-04 22:52 | 7.85698 | 123.97949 | 9541 ft | 214 kts | 160° |
| 2026-05-04 22:53 | 7.84348 | 123.98563 | 9546 ft | 213 kts | 149° |
| 2026-05-04 22:53 | 7.83123 | 123.99393 | 9546 ft | 212 kts | 143° |
| 2026-05-04 22:53 | 7.81928 | 124.00267 | 9543 ft | 212 kts | 142° |
| 2026-05-04 22:53 | 7.80737 | 124.01149 | 9551 ft | 212 kts | 142° |
| 2026-05-04 22:54 | 7.79546 | 124.02035 | 9549 ft | 212 kts | 142° |
| 2026-05-04 22:54 | 7.78356 | 124.02918 | 9551 ft | 212 kts | 142° |
| 2026-05-04 22:54 | 7.77164 | 124.03804 | 9544 ft | 213 kts | 142° |
| 2026-05-04 22:54 | 7.75973 | 124.04691 | 9548 ft | 213 kts | 142° |
| 2026-05-04 22:55 | 7.74782 | 124.05578 | 9548 ft | 213 kts | 142° |
| 2026-05-04 22:55 | 7.73591 | 124.06465 | 9546 ft | 213 kts | 142° |
| 2026-05-04 22:55 | 7.72400 | 124.07350 | 9545 ft | 213 kts | 142° |
| 2026-05-04 22:55 | 7.71207 | 124.08237 | 9547 ft | 212 kts | 142° |
| 2026-05-04 22:56 | 7.70017 | 124.09121 | 9548 ft | 213 kts | 142° |
| 2026-05-04 22:56 | 7.68826 | 124.10003 | 9550 ft | 212 kts | 142° |
| 2026-05-04 22:56 | 7.67636 | 124.10883 | 9550 ft | 213 kts | 142° |
| 2026-05-04 22:56 | 7.66442 | 124.11771 | 9549 ft | 213 kts | 142° |
| 2026-05-04 22:57 | 7.65251 | 124.12656 | 9550 ft | 213 kts | 142° |
| 2026-05-04 22:57 | 7.64059 | 124.13540 | 9548 ft | 213 kts | 142° |
| 2026-05-04 22:57 | 7.62873 | 124.14432 | 9549 ft | 213 kts | 139° |
| 2026-05-04 22:57 | 7.61845 | 124.15502 | 9547 ft | 212 kts | 128° |
| 2026-05-04 22:58 | 7.61046 | 124.16745 | 9553 ft | 211 kts | 118° |
| 2026-05-04 22:58 | 7.60343 | 124.18041 | 9554 ft | 211 kts | 116° |
| 2026-05-04 22:58 | 7.59774 | 124.19403 | 9549 ft | 210 kts | 110° |
| 2026-05-04 22:58 | 7.59264 | 124.20781 | 9551 ft | 210 kts | 110° |
| 2026-05-04 22:59 | 7.58766 | 124.22145 | 9557 ft | 210 kts | 109° |
| 2026-05-04 22:59 | 7.58265 | 124.23531 | 9562 ft | 210 kts | 109° |
| 2026-05-04 22:59 | 7.57766 | 124.24911 | 9559 ft | 210 kts | 109° |
| 2026-05-04 22:59 | 7.57265 | 124.26289 | 9562 ft | 209 kts | 109° |
| 2026-05-04 23:00 | 7.56781 | 124.27672 | 9560 ft | 210 kts | 108° |
| 2026-05-04 23:00 | 7.56324 | 124.29069 | 9559 ft | 209 kts | 108° |
| 2026-05-04 23:00 | 7.55873 | 124.30462 | 9565 ft | 209 kts | 108° |
| 2026-05-04 23:00 | 7.55422 | 124.31855 | 9564 ft | 209 kts | 108° |
| 2026-05-04 23:01 | 7.54971 | 124.33252 | 9567 ft | 209 kts | 108° |
| 2026-05-04 23:01 | 7.54521 | 124.34645 | 9569 ft | 209 kts | 108° |
| 2026-05-04 23:01 | 7.54070 | 124.36039 | 9567 ft | 209 kts | 108° |
| 2026-05-04 23:01 | 7.53620 | 124.37436 | 9568 ft | 210 kts | 108° |
| 2026-05-04 23:02 | 7.53169 | 124.38834 | 9567 ft | 209 kts | 108° |
| 2026-05-04 23:02 | 7.52718 | 124.40233 | 9568 ft | 210 kts | 108° |
| 2026-05-04 23:02 | 7.52266 | 124.41631 | 9561 ft | 210 kts | 108° |
| 2026-05-04 23:02 | 7.51813 | 124.43028 | 9566 ft | 210 kts | 108° |
| 2026-05-04 23:03 | 7.51360 | 124.44424 | 9553 ft | 210 kts | 107° |
| 2026-05-04 23:03 | 7.50904 | 124.45822 | 9556 ft | 210 kts | 108° |
| 2026-05-04 23:03 | 7.50446 | 124.47222 | 9555 ft | 210 kts | 108° |
| 2026-05-04 23:03 | 7.49988 | 124.48619 | 9555 ft | 210 kts | 108° |
| 2026-05-04 23:04 | 7.49524 | 124.50016 | 9551 ft | 210 kts | 108° |
| 2026-05-04 23:04 | 7.49058 | 124.51414 | 9556 ft | 210 kts | 108° |
| 2026-05-04 23:04 | 7.48592 | 124.52811 | 9551 ft | 211 kts | 108° |
| 2026-05-04 23:04 | 7.48126 | 124.54213 | 9552 ft | 211 kts | 108° |
| 2026-05-04 23:05 | 7.47659 | 124.55613 | 9551 ft | 211 kts | 108° |
| 2026-05-04 23:05 | 7.47191 | 124.57013 | 9555 ft | 211 kts | 108° |
| 2026-05-04 23:05 | 7.46729 | 124.58396 | 9551 ft | 211 kts | 108° |
| 2026-05-04 23:05 | 7.46262 | 124.59799 | 9550 ft | 211 kts | 108° |
| 2026-05-04 23:06 | 7.45795 | 124.61200 | 9548 ft | 211 kts | 108° |
| 2026-05-04 23:06 | 7.45331 | 124.62598 | 9557 ft | 211 kts | 108° |
| 2026-05-04 23:06 | 7.44866 | 124.64000 | 9549 ft | 211 kts | 108° |
| 2026-05-04 23:06 | 7.44398 | 124.65403 | 9548 ft | 211 kts | 108° |
| 2026-05-04 23:07 | 7.43931 | 124.66806 | 9546 ft | 211 kts | 108° |
| 2026-05-04 23:07 | 7.43464 | 124.68209 | 9545 ft | 211 kts | 108° |
| 2026-05-04 23:07 | 7.42996 | 124.69615 | 9540 ft | 211 kts | 108° |
| 2026-05-04 23:07 | 7.42530 | 124.71016 | 9543 ft | 211 kts | 108° |
| 2026-05-04 23:08 | 7.42062 | 124.72420 | 9537 ft | 212 kts | 108° |
| 2026-05-04 23:08 | 7.41591 | 124.73834 | 9490 ft | 213 kts | 108° |
| 2026-05-04 23:08 | 7.41122 | 124.75244 | 9531 ft | 211 kts | 108° |
| 2026-05-04 23:08 | 7.40657 | 124.76644 | 9552 ft | 210 kts | 108° |
| 2026-05-04 23:09 | 7.40197 | 124.78035 | 9536 ft | 209 kts | 107° |
| 2026-05-04 23:09 | 7.39824 | 124.79454 | 9473 ft | 210 kts | 102° |
| 2026-05-04 23:09 | 7.39501 | 124.80894 | 9409 ft | 210 kts | 102° |
| 2026-05-04 23:09 | 7.39183 | 124.82332 | 9337 ft | 210 kts | 102° |
| 2026-05-04 23:10 | 7.38865 | 124.83771 | 9243 ft | 211 kts | 102° |
| 2026-05-04 23:10 | 7.38545 | 124.85213 | 9137 ft | 211 kts | 102° |
| 2026-05-04 23:10 | 7.38223 | 124.86660 | 9039 ft | 212 kts | 102° |
| 2026-05-04 23:10 | 7.37901 | 124.88103 | 8948 ft | 212 kts | 102° |
| 2026-05-04 23:11 | 7.37581 | 124.89531 | 8846 ft | 212 kts | 102° |
| 2026-05-04 23:11 | 7.37257 | 124.90977 | 8747 ft | 212 kts | 102° |
| 2026-05-04 23:11 | 7.36932 | 124.92428 | 8644 ft | 213 kts | 102° |
| 2026-05-04 23:11 | 7.36600 | 124.93901 | 8547 ft | 213 kts | 102° |
| 2026-05-04 23:12 | 7.36275 | 124.95335 | 8452 ft | 213 kts | 102° |
| 2026-05-04 23:12 | 7.35945 | 124.96790 | 8354 ft | 213 kts | 102° |
| 2026-05-04 23:12 | 7.35613 | 124.98246 | 8255 ft | 213 kts | 102° |
| 2026-05-04 23:12 | 7.35281 | 124.99696 | 8158 ft | 213 kts | 102° |
| 2026-05-04 23:13 | 7.34947 | 125.01151 | 8063 ft | 213 kts | 102° |
| 2026-05-04 23:13 | 7.34612 | 125.02601 | 7958 ft | 213 kts | 102° |
| 2026-05-04 23:13 | 7.34274 | 125.04055 | 7854 ft | 213 kts | 102° |
| 2026-05-04 23:13 | 7.33933 | 125.05513 | 7755 ft | 213 kts | 102° |
| 2026-05-04 23:14 | 7.33579 | 125.06965 | 7660 ft | 214 kts | 103° |
| 2026-05-04 23:14 | 7.33191 | 125.08410 | 7563 ft | 213 kts | 103° |
| 2026-05-04 23:14 | 7.32797 | 125.09850 | 7472 ft | 213 kts | 103° |
| 2026-05-04 23:14 | 7.32403 | 125.11288 | 7389 ft | 213 kts | 103° |
| 2026-05-04 23:15 | 7.32005 | 125.12726 | 7302 ft | 213 kts | 104° |
| 2026-05-04 23:15 | 7.31604 | 125.14147 | 7296 ft | 209 kts | 104° |
| 2026-05-04 23:15 | 7.31208 | 125.15544 | 7278 ft | 207 kts | 104° |
| 2026-05-04 23:15 | 7.30804 | 125.16942 | 7188 ft | 209 kts | 106° |
| 2026-05-04 23:16 | 7.30482 | 125.17860 | 7121 ft | 210 kts | 109° |
| 2026-05-04 23:16 | 7.29761 | 125.19688 | 7067 ft | 209 kts | 110° |
| 2026-05-04 23:16 | 7.29381 | 125.20575 | 7052 ft | 208 kts | 111° |
| 2026-05-04 23:16 | 7.28629 | 125.22345 | 6938 ft | 208 kts | 110° |
| 2026-05-04 23:17 | 7.28078 | 125.23699 | 6817 ft | 209 kts | 110° |
| 2026-05-04 23:17 | 7.27699 | 125.24610 | 6748 ft | 207 kts | 111° |
| 2026-05-04 23:17 | 7.27120 | 125.25939 | 6577 ft | 209 kts | 112° |
| 2026-05-04 23:17 | 7.26522 | 125.27267 | 6466 ft | 207 kts | 112° |
| 2026-05-04 23:18 | 7.25910 | 125.28577 | 6321 ft | 206 kts | 113° |
| 2026-05-04 23:18 | 7.25280 | 125.29875 | 6161 ft | 206 kts | 114° |
| 2026-05-04 23:18 | 7.24634 | 125.31160 | 6052 ft | 205 kts | 115° |
| 2026-05-04 23:18 | 7.23979 | 125.32413 | 5924 ft | 204 kts | 115° |
| 2026-05-04 23:19 | 7.23310 | 125.33670 | 5762 ft | 204 kts | 115° |
| 2026-05-04 23:19 | 7.22633 | 125.34925 | 5588 ft | 204 kts | 116° |
| 2026-05-04 23:19 | 7.21920 | 125.36159 | 5415 ft | 204 kts | 118° |
| 2026-05-04 23:19 | 7.21145 | 125.37355 | 5273 ft | 203 kts | 121° |
| 2026-05-04 23:20 | 7.20421 | 125.38567 | 5135 ft | 201 kts | 115° |
| 2026-05-04 23:20 | 7.19827 | 125.39843 | 4985 ft | 201 kts | 108° |
| 2026-05-04 23:20 | 7.19356 | 125.41161 | 4852 ft | 198 kts | 105° |
| 2026-05-04 23:20 | 7.18945 | 125.42465 | 4710 ft | 194 kts | 103° |
| 2026-05-04 23:21 | 7.18607 | 125.43774 | 4541 ft | 192 kts | 99° |
| 2026-05-04 23:21 | 7.18334 | 125.45074 | 4394 ft | 187 kts | 98° |
| 2026-05-04 23:21 | 7.18102 | 125.46347 | 4252 ft | 182 kts | 96° |
| 2026-05-04 23:21 | 7.17901 | 125.47601 | 4015 ft | 181 kts | 96° |
| 2026-05-04 23:22 | 7.17694 | 125.48856 | 3757 ft | 182 kts | 96° |
| 2026-05-04 23:22 | 7.17513 | 125.50117 | 3543 ft | 181 kts | 94° |
| 2026-05-04 23:22 | 7.17350 | 125.51370 | 3362 ft | 179 kts | 95° |
| 2026-05-04 23:22 | 7.17167 | 125.52611 | 3174 ft | 179 kts | 95° |
| 2026-05-04 23:23 | 7.16971 | 125.53830 | 2995 ft | 178 kts | 95° |
| 2026-05-04 23:23 | 7.16790 | 125.55065 | 2772 ft | 178 kts | 94° |
| 2026-05-04 23:23 | 7.16622 | 125.56303 | 2504 ft | 178 kts | 96° |
| 2026-05-04 23:23 | 7.16241 | 125.57489 | 2263 ft | 180 kts | 111° |
| 2026-05-04 23:24 | 7.15541 | 125.58541 | 2064 ft | 181 kts | 133° |
| 2026-05-04 23:24 | 7.14493 | 125.59214 | 1854 ft | 179 kts | 152° |
| 2026-05-04 23:24 | 7.13392 | 125.59755 | 1738 ft | 168 kts | 152° |
| 2026-05-04 23:24 | 7.12420 | 125.60246 | 1425 ft | 145 kts | 150° |
| 2026-05-04 23:25 | 7.11579 | 125.60697 | 1129 ft | 131 kts | 149° |
| 2026-05-04 23:25 | 7.10860 | 125.61205 | 821 ft | 125 kts | 122° |
| 2026-05-04 23:25 | 7.10684 | 125.62001 | 560 ft | 115 kts | 76° |
| 2026-05-04 23:25 | 7.10983 | 125.62705 | 352 ft | 102 kts | 55° |
| 2026-05-04 23:26 | 7.11407 | 125.63248 | 216 ft | 96 kts | 44° |
| 2026-05-04 23:26 | 7.11835 | 125.63739 | 116 ft | 90 kts | 45° |
| 2026-05-04 23:26 | 7.12196 | 125.64156 | 96 ft | 63 kts | 51° |
| 2026-05-04 23:26 | 7.12437 | 125.64439 | 94 ft | 46 kts | 47° |
| 2026-05-04 23:27 | 7.12622 | 125.64653 | 95 ft | 36 kts | 48° |
| 2026-05-04 23:27 | 7.12765 | 125.64822 | 97 ft | 29 kts | 49° |
| 2026-05-04 23:27 | 7.12895 | 125.64973 | 96 ft | 29 kts | 47° |
| 2026-05-04 23:27 | 7.12943 | 125.65028 | 96 ft | 8 kts | 51° |
| 2026-05-04 23:28 | 7.12939 | 125.65097 | 96 ft | 8 kts | 114° |
| 2026-05-04 23:28 | 7.12941 | 125.65153 | 96 ft | 9 kts | 51° |
| 2026-05-04 23:28 | 7.13000 | 125.65219 | 96 ft | 13 kts | 48° |
| 2026-05-04 23:28 | 7.13057 | 125.65284 | 95 ft | 11 kts | 49° |
| 2026-05-04 23:29 | 7.13070 | 125.65341 | 95 ft | 11 kts | 139° |
| 2026-05-04 23:29 | 7.13010 | 125.65379 | 96 ft | 12 kts | 168° |
| 2026-05-04 23:29 | 7.12939 | 125.65393 | 96 ft | 11 kts | 169° |
| 2026-05-04 23:29 | 7.12861 | 125.65408 | 96 ft | 12 kts | 168° |
| 2026-05-04 23:30 | 7.12774 | 125.65426 | 96 ft | 11 kts | 168° |
| 2026-05-04 23:30 | 7.12702 | 125.65442 | 96 ft | 11 kts | 168° |
| 2026-05-04 23:30 | 7.12639 | 125.65454 | 96 ft | 7 kts | 169° |
| 2026-05-04 23:30 | 7.12619 | 125.65468 | 96 ft | 1 kts | 72° |
| 2026-05-04 23:31 | 7.12620 | 125.65473 | 96 ft | 0 kts | 73° |